createdAt,value
2017-09-15T00:00:10.598Z,94.10
2017-09-15T00:02:38.185Z,94.10
2017-09-15T00:05:05.809Z,94.30
2017-09-15T00:07:33.445Z,94.40
2017-09-15T00:10:01.053Z,94.00
2017-09-15T00:12:28.617Z,94.10
2017-09-15T00:14:57.048Z,94.10
2017-09-15T00:17:24.886Z,94.10
2017-09-15T00:19:52.499Z,94.10
2017-09-15T00:22:20.129Z,94.00
2017-09-15T00:24:47.744Z,93.80
2017-09-15T00:27:15.329Z,93.90
2017-09-15T00:29:42.939Z,93.90
2017-09-15T00:32:10.535Z,94.00
2017-09-15T00:34:38.187Z,94.10
2017-09-15T00:37:07.470Z,94.10
2017-09-15T00:39:35.149Z,94.00
2017-09-15T00:42:02.783Z,94.10
2017-09-15T00:44:30.387Z,94.00
2017-09-15T00:46:58.068Z,94.00
2017-09-15T00:49:25.701Z,93.80
2017-09-15T00:51:53.377Z,93.90
2017-09-15T00:54:20.984Z,94.00
2017-09-15T00:56:49.411Z,93.90
2017-09-15T00:59:16.990Z,93.90
2017-09-15T01:01:44.647Z,93.90
2017-09-15T01:04:12.269Z,94.00
2017-09-15T01:06:39.915Z,94.00
2017-09-15T01:09:07.632Z,94.10
2017-09-15T01:11:36.007Z,94.50
2017-09-15T01:14:04.450Z,94.10
2017-09-15T01:16:32.033Z,94.10
2017-09-15T01:18:59.692Z,94.20
2017-09-15T01:21:27.380Z,94.10
2017-09-15T01:23:54.980Z,94.30
2017-09-15T01:26:22.570Z,94.70
2017-09-15T01:28:50.273Z,94.00
2017-09-15T01:31:18.339Z,94.20
2017-09-15T01:33:46.694Z,94.10
2017-09-15T01:36:14.281Z,94.10
2017-09-15T01:38:42.762Z,94.20
2017-09-15T01:41:10.412Z,94.20
2017-09-15T01:43:38.812Z,94.20
2017-09-15T01:46:06.456Z,94.10
2017-09-15T01:48:34.074Z,93.90
2017-09-15T01:51:02.481Z,94.00
2017-09-15T01:53:30.150Z,94.00
2017-09-15T01:55:57.739Z,94.00
2017-09-15T01:58:25.397Z,94.00
2017-09-15T02:00:53.015Z,93.80
2017-09-15T02:03:21.049Z,94.00
2017-09-15T02:05:48.659Z,93.80
2017-09-15T02:08:16.337Z,93.70
2017-09-15T02:10:43.922Z,93.70
2017-09-15T02:13:11.911Z,93.60
2017-09-15T02:15:39.558Z,93.70
2017-09-15T02:18:07.986Z,93.80
2017-09-15T02:20:35.591Z,93.80
2017-09-15T02:23:03.195Z,94.00
2017-09-15T02:25:30.801Z,93.80
2017-09-15T02:27:58.454Z,93.80
2017-09-15T02:30:26.126Z,93.70
2017-09-15T02:32:53.734Z,93.60
2017-09-15T02:35:21.356Z,93.70
2017-09-15T02:37:49.320Z,93.80
2017-09-15T02:40:16.929Z,93.80
2017-09-15T02:42:45.303Z,93.70
2017-09-15T02:45:14.526Z,93.70
2017-09-15T02:47:42.869Z,93.70
2017-09-15T02:50:11.243Z,94.00
2017-09-15T02:52:38.971Z,93.60
2017-09-15T02:55:06.550Z,93.80
2017-09-15T02:57:34.928Z,93.60
2017-09-15T03:00:02.571Z,93.60
2017-09-15T03:02:30.264Z,93.50
2017-09-15T03:04:57.924Z,93.50
2017-09-15T03:07:26.406Z,93.70
2017-09-15T03:09:54.812Z,93.70
2017-09-15T03:12:22.457Z,93.70
2017-09-15T03:14:50.106Z,93.80
2017-09-15T03:17:18.592Z,93.50
2017-09-15T03:19:46.967Z,93.60
2017-09-15T03:22:15.389Z,93.50
2017-09-15T03:24:43.005Z,93.40
2017-09-15T03:27:11.972Z,93.40
2017-09-15T03:29:39.574Z,93.40
2017-09-15T03:32:07.166Z,93.50
2017-09-15T03:34:34.853Z,93.50
2017-09-15T03:37:02.451Z,93.30
2017-09-15T03:39:30.061Z,93.10
2017-09-15T03:41:57.671Z,93.50
2017-09-15T03:44:25.284Z,93.60
2017-09-15T03:46:52.896Z,93.30
2017-09-15T03:49:20.543Z,93.50
2017-09-15T03:51:48.906Z,93.30
2017-09-15T03:54:17.257Z,93.30
2017-09-15T03:56:44.851Z,93.60
2017-09-15T03:59:12.462Z,93.70
2017-09-15T04:01:40.203Z,93.60
2017-09-15T04:04:07.814Z,93.50
2017-09-15T04:06:36.207Z,93.40
2017-09-15T04:09:03.864Z,93.30
2017-09-15T04:11:31.549Z,93.40
2017-09-15T04:13:59.194Z,93.60
2017-09-15T04:16:26.873Z,93.50
2017-09-15T04:18:54.495Z,93.60
2017-09-15T04:21:22.481Z,93.40
2017-09-15T04:23:50.099Z,93.50
2017-09-15T04:26:18.985Z,93.60
2017-09-15T04:28:46.613Z,93.60
2017-09-15T04:31:14.248Z,93.80
2017-09-15T04:33:41.936Z,93.30
2017-09-15T04:36:09.555Z,93.30
2017-09-15T04:38:41.938Z,93.70
2017-09-15T04:41:09.573Z,93.60
2017-09-15T04:43:37.969Z,93.60
2017-09-15T04:46:05.567Z,93.60
2017-09-15T04:48:33.197Z,93.50
2017-09-15T04:51:00.872Z,93.20
2017-09-15T04:53:28.557Z,93.30
2017-09-15T04:55:56.219Z,93.00
2017-09-15T04:58:23.884Z,92.90
2017-09-15T05:00:51.505Z,93.20
2017-09-15T05:03:19.131Z,93.00
2017-09-15T05:05:47.496Z,92.80
2017-09-15T05:08:15.114Z,92.70
2017-09-15T05:10:43.042Z,92.90
2017-09-15T05:13:10.667Z,93.10
2017-09-15T05:15:38.285Z,93.30
2017-09-15T05:18:05.936Z,92.80
2017-09-15T05:20:33.670Z,92.90
2017-09-15T05:23:02.507Z,93.00
2017-09-15T05:25:30.087Z,92.90
2017-09-15T05:27:57.772Z,92.90
2017-09-15T05:30:26.173Z,93.20
2017-09-15T05:32:53.829Z,92.80
2017-09-15T05:35:21.518Z,92.60
2017-09-15T05:37:49.126Z,92.70
2017-09-15T05:40:16.736Z,92.70
2017-09-15T05:42:44.352Z,92.80
2017-09-15T05:45:11.958Z,92.80
2017-09-15T05:47:39.584Z,92.60
2017-09-15T05:50:08.196Z,92.60
2017-09-15T05:52:36.655Z,92.60
2017-09-15T05:55:04.292Z,92.60
2017-09-15T05:57:31.942Z,92.60
2017-09-15T05:59:59.572Z,92.40
2017-09-15T06:02:27.817Z,92.60
2017-09-15T06:04:55.414Z,92.40
2017-09-15T06:07:23.833Z,92.30
2017-09-15T06:09:51.466Z,92.20
2017-09-15T06:12:19.107Z,92.00
2017-09-15T06:14:47.527Z,92.30
2017-09-15T06:17:15.120Z,92.30
2017-09-15T06:19:42.764Z,92.20
2017-09-15T06:22:10.423Z,92.30
2017-09-15T06:24:38.046Z,92.10
2017-09-15T06:27:05.778Z,91.80
2017-09-15T06:29:33.872Z,91.40
2017-09-15T06:32:02.244Z,91.70
2017-09-15T06:34:29.887Z,91.40
2017-09-15T06:36:58.407Z,91.30
2017-09-15T06:39:26.924Z,91.10
2017-09-15T06:41:54.604Z,91.00
2017-09-15T06:44:23.215Z,91.10
2017-09-15T06:46:51.573Z,90.90
2017-09-15T06:49:19.701Z,90.80
2017-09-15T06:51:47.352Z,91.00
2017-09-15T06:54:15.014Z,90.80
2017-09-15T06:56:42.676Z,91.40
2017-09-15T06:59:10.271Z,91.40
2017-09-15T07:01:37.902Z,91.10
2017-09-15T07:04:05.658Z,91.10
2017-09-15T07:06:34.085Z,91.50
2017-09-15T07:09:01.745Z,91.20
2017-09-15T07:11:29.405Z,91.10
2017-09-15T07:13:57.100Z,90.70
2017-09-15T07:16:24.861Z,90.90
2017-09-15T07:18:52.475Z,91.00
2017-09-15T07:21:20.092Z,90.90
2017-09-15T07:23:47.687Z,90.70
2017-09-15T07:26:15.326Z,90.70
2017-09-15T07:28:42.976Z,90.40
2017-09-15T07:31:10.838Z,90.50
2017-09-15T07:33:38.538Z,90.50
2017-09-15T07:36:06.214Z,90.20
2017-09-15T07:38:33.856Z,90.00
2017-09-15T07:41:01.489Z,89.80
2017-09-15T07:43:29.450Z,89.40
2017-09-15T07:45:57.060Z,89.40
2017-09-15T07:48:24.663Z,88.90
2017-09-15T07:50:52.227Z,89.70
2017-09-15T07:53:19.914Z,89.30
2017-09-15T07:55:48.320Z,89.20
2017-09-15T07:58:16.065Z,89.20
2017-09-15T08:00:44.139Z,89.60
2017-09-15T08:03:11.763Z,89.40
2017-09-15T08:05:39.386Z,89.40
2017-09-15T08:08:06.994Z,88.60
2017-09-15T08:10:35.417Z,88.30
2017-09-15T08:13:03.096Z,88.20
2017-09-15T08:15:30.804Z,88.10
2017-09-15T08:17:58.868Z,87.40
2017-09-15T08:20:26.485Z,87.30
2017-09-15T08:22:54.303Z,87.50
2017-09-15T08:25:39.555Z,88.10
2017-09-15T08:28:07.552Z,87.70
2017-09-15T08:30:35.169Z,87.80
2017-09-15T08:33:02.784Z,87.60
2017-09-15T08:35:30.383Z,87.30
2017-09-15T08:37:58.024Z,87.20
2017-09-15T08:40:25.608Z,86.60
2017-09-15T08:42:53.196Z,87.50
2017-09-15T08:45:21.667Z,88.80
2017-09-15T08:47:49.293Z,88.80
2017-09-15T08:50:16.976Z,87.90
2017-09-15T08:52:44.605Z,88.30
2017-09-15T08:55:12.288Z,87.60
2017-09-15T08:57:39.912Z,86.70
2017-09-15T09:00:07.525Z,87.80
2017-09-15T09:02:35.210Z,87.50
2017-09-15T09:05:02.834Z,88.20
2017-09-15T09:07:30.516Z,87.80
2017-09-15T09:09:58.090Z,88.30
2017-09-15T09:12:26.542Z,87.50
2017-09-15T09:14:54.166Z,88.20
2017-09-15T09:17:22.532Z,87.00
2017-09-15T09:19:50.169Z,86.90
2017-09-15T09:22:17.774Z,86.40
2017-09-15T09:24:45.379Z,86.00
2017-09-15T09:27:12.989Z,85.20
2017-09-15T09:29:40.650Z,85.00
2017-09-15T09:32:09.181Z,84.60
2017-09-15T09:34:36.762Z,84.60
2017-09-15T09:37:04.389Z,84.50
2017-09-15T09:39:32.841Z,85.30
2017-09-15T09:42:00.477Z,85.30
2017-09-15T09:44:28.119Z,84.10
2017-09-15T09:46:55.798Z,85.10
2017-09-15T09:49:23.448Z,83.90
2017-09-15T09:51:51.140Z,83.90
2017-09-15T09:54:19.629Z,83.60
2017-09-15T09:56:47.328Z,83.60
2017-09-15T09:59:14.970Z,83.90
2017-09-15T10:01:42.676Z,83.90
2017-09-15T10:04:10.329Z,84.60
2017-09-15T10:06:37.958Z,84.30
2017-09-15T10:09:05.653Z,82.50
2017-09-15T10:11:33.215Z,82.30
2017-09-15T10:14:00.796Z,83.20
2017-09-15T10:16:28.393Z,83.10
2017-09-15T10:18:55.988Z,82.90
2017-09-15T10:21:23.670Z,84.10
2017-09-15T10:23:51.262Z,84.20
2017-09-15T10:26:18.944Z,84.00
2017-09-15T10:28:46.584Z,83.60
2017-09-15T10:31:14.174Z,83.50
2017-09-15T10:33:41.846Z,84.40
2017-09-15T10:36:09.483Z,83.80
2017-09-15T10:38:37.422Z,83.40
2017-09-15T10:41:05.828Z,80.60
2017-09-15T10:43:33.423Z,80.60
2017-09-15T10:46:01.026Z,79.90
2017-09-15T10:48:28.681Z,77.00
2017-09-15T10:50:57.111Z,76.40
2017-09-15T10:53:24.795Z,76.30
2017-09-15T10:55:52.586Z,76.20
2017-09-15T10:58:25.831Z,77.70
2017-09-15T11:00:53.476Z,76.50
2017-09-15T11:03:21.094Z,76.50
2017-09-15T11:05:48.738Z,75.50
2017-09-15T11:08:16.493Z,74.30
2017-09-15T11:10:44.093Z,74.30
2017-09-15T11:13:11.726Z,74.40
2017-09-15T11:15:39.293Z,74.80
2017-09-15T11:18:06.944Z,74.70
2017-09-15T11:20:34.550Z,75.90
2017-09-15T11:23:02.152Z,76.60
2017-09-15T11:25:29.782Z,76.30
2017-09-15T11:27:57.365Z,77.10
2017-09-15T11:30:24.986Z,78.50
2017-09-15T11:32:53.685Z,83.10
2017-09-15T11:35:21.268Z,83.10
2017-09-15T11:37:48.866Z,82.40
2017-09-15T11:40:16.784Z,82.40
2017-09-15T11:42:44.390Z,81.60
2017-09-15T11:45:12.309Z,82.10
2017-09-15T11:47:39.923Z,82.20
2017-09-15T11:50:07.506Z,82.30
2017-09-15T11:52:35.938Z,80.80
2017-09-15T11:55:03.581Z,80.80
2017-09-15T11:57:31.199Z,80.80
2017-09-15T11:59:58.814Z,79.00
2017-09-15T12:02:27.079Z,79.00
2017-09-15T12:04:54.761Z,77.80
2017-09-15T12:07:22.486Z,77.70
2017-09-15T12:09:50.938Z,76.60
2017-09-15T12:12:18.551Z,76.60
2017-09-15T12:14:46.156Z,77.10
2017-09-15T12:17:13.916Z,76.60
2017-09-15T12:19:41.517Z,76.40
2017-09-15T12:22:09.179Z,76.20
2017-09-15T12:24:36.782Z,76.00
2017-09-15T12:27:04.407Z,75.30
2017-09-15T12:29:32.022Z,75.00
2017-09-15T12:31:59.612Z,74.80
2017-09-15T12:34:27.288Z,75.30
2017-09-15T12:36:54.952Z,74.40
2017-09-15T12:39:22.557Z,73.80
2017-09-15T12:41:50.194Z,72.80
2017-09-15T12:44:17.904Z,72.50
2017-09-15T12:46:46.277Z,71.20
2017-09-15T12:49:15.507Z,72.20
2017-09-15T12:51:43.238Z,72.20
2017-09-15T12:54:10.821Z,72.80
2017-09-15T12:56:39.247Z,70.40
2017-09-15T12:59:06.880Z,70.40
2017-09-15T13:01:34.613Z,70.40
2017-09-15T13:04:03.050Z,73.00
2017-09-15T13:06:30.628Z,72.10
2017-09-15T13:08:58.236Z,72.40
2017-09-15T13:11:25.868Z,71.40
2017-09-15T13:13:53.720Z,70.60
2017-09-15T13:16:21.359Z,71.40
2017-09-15T13:18:48.938Z,70.80
2017-09-15T13:21:17.702Z,70.60
2017-09-15T13:23:45.304Z,69.80
2017-09-15T13:26:13.748Z,69.30
2017-09-15T13:28:41.338Z,69.30
2017-09-15T13:31:10.486Z,69.30
2017-09-15T13:33:38.089Z,69.20
2017-09-15T13:36:05.691Z,69.70
2017-09-15T13:38:33.322Z,68.80
2017-09-15T13:41:01.020Z,68.30
2017-09-15T13:43:29.426Z,68.80
2017-09-15T13:45:57.094Z,69.10
2017-09-15T13:48:24.687Z,69.00
2017-09-15T13:50:52.324Z,68.60
2017-09-15T13:53:19.998Z,67.00
2017-09-15T13:55:47.801Z,68.00
2017-09-15T13:58:16.233Z,69.80
2017-09-15T14:00:44.296Z,69.80
2017-09-15T14:03:11.886Z,73.20
2017-09-15T14:05:39.549Z,73.40
2017-09-15T14:08:07.133Z,73.20
2017-09-15T14:10:34.714Z,72.40
2017-09-15T14:13:02.435Z,72.80
2017-09-15T14:15:30.014Z,72.30
2017-09-15T14:17:57.655Z,71.50
2017-09-15T14:20:25.272Z,71.80
2017-09-15T14:22:53.665Z,72.20
2017-09-15T14:25:21.805Z,72.10
2017-09-15T14:27:49.487Z,73.10
2017-09-15T14:30:17.127Z,73.50
2017-09-15T14:32:44.730Z,73.20
2017-09-15T14:35:12.360Z,73.70
2017-09-15T14:37:39.954Z,73.70
2017-09-15T14:40:07.592Z,73.90
2017-09-15T14:42:35.219Z,74.90
2017-09-15T14:45:03.601Z,74.90
2017-09-15T14:47:32.179Z,74.70
2017-09-15T14:50:00.554Z,74.70
2017-09-15T14:52:28.919Z,74.40
2017-09-15T14:54:56.851Z,74.40
2017-09-15T14:57:24.434Z,74.80
2017-09-15T14:59:52.041Z,74.10
2017-09-15T15:02:19.700Z,73.30
2017-09-15T15:04:47.289Z,73.80
2017-09-15T15:07:14.872Z,72.80
2017-09-15T15:09:42.477Z,73.00
2017-09-15T15:12:10.143Z,73.00
2017-09-15T15:14:37.753Z,72.80
2017-09-15T15:17:05.360Z,71.50
2017-09-15T15:19:32.958Z,70.60
2017-09-15T15:22:00.590Z,70.20
2017-09-15T15:24:28.203Z,70.60
2017-09-15T15:26:55.777Z,71.10
2017-09-15T15:29:24.295Z,71.90
2017-09-15T15:31:51.900Z,72.00
2017-09-15T15:34:19.465Z,72.50
2017-09-15T15:36:47.111Z,72.70
2017-09-15T15:39:15.503Z,72.60
2017-09-15T15:41:43.352Z,72.50
2017-09-15T15:44:11.757Z,73.20
2017-09-15T15:46:39.328Z,73.20
2017-09-15T15:49:06.929Z,74.20
2017-09-15T15:51:34.567Z,75.20
2017-09-15T15:54:02.196Z,75.30
2017-09-15T15:56:29.834Z,75.70
2017-09-15T15:58:57.503Z,76.00
2017-09-15T16:01:25.870Z,76.70
2017-09-15T16:03:53.769Z,76.70
2017-09-15T16:06:21.343Z,76.70
2017-09-15T16:08:48.940Z,77.80
2017-09-15T16:11:16.609Z,77.50
2017-09-15T16:13:45.025Z,78.40
2017-09-15T16:16:12.680Z,78.30
2017-09-15T16:18:40.390Z,78.00
2017-09-15T16:21:07.985Z,78.70
2017-09-15T16:23:35.638Z,78.60
2017-09-15T16:26:03.265Z,78.80
2017-09-15T16:28:30.982Z,78.80
2017-09-15T16:30:58.677Z,78.90
2017-09-15T16:33:26.270Z,77.70
2017-09-15T16:35:53.897Z,77.10
2017-09-15T16:38:27.379Z,76.70
2017-09-15T16:41:00.631Z,77.10
2017-09-15T16:43:33.994Z,77.10
2017-09-15T16:46:07.352Z,77.40
2017-09-15T16:48:40.613Z,77.80
2017-09-15T16:51:08.295Z,76.90
2017-09-15T16:53:35.955Z,76.00
2017-09-15T16:56:03.525Z,75.80
2017-09-15T16:58:31.971Z,75.60
2017-09-15T17:00:59.555Z,75.60
2017-09-15T17:03:27.930Z,78.60
2017-09-15T17:05:55.589Z,78.70
2017-09-15T17:08:23.933Z,78.90
2017-09-15T17:10:51.631Z,78.80
2017-09-15T17:13:20.030Z,80.70
2017-09-15T17:15:47.686Z,80.50
2017-09-15T17:18:15.330Z,80.00
2017-09-15T17:20:43.749Z,80.00
2017-09-15T17:23:11.349Z,81.30
2017-09-15T17:25:39.019Z,80.60
2017-09-15T17:28:06.604Z,82.20
2017-09-15T17:30:34.228Z,82.90
2017-09-15T17:33:01.834Z,82.20
2017-09-15T17:35:29.469Z,82.80
2017-09-15T17:37:57.088Z,81.40
2017-09-15T17:40:24.740Z,82.10
2017-09-15T17:42:53.249Z,80.80
2017-09-15T17:45:21.319Z,82.70
2017-09-15T17:47:49.138Z,82.90
2017-09-15T17:50:16.756Z,82.40
2017-09-15T17:52:44.381Z,82.00
2017-09-15T17:55:11.974Z,82.90
2017-09-15T17:57:39.771Z,82.10
2017-09-15T18:00:07.397Z,82.10
2017-09-15T18:02:35.036Z,82.60
2017-09-15T18:05:02.689Z,82.80
2017-09-15T18:07:30.276Z,82.30
2017-09-15T18:12:32.642Z,81.90
2017-09-15T18:15:00.254Z,81.90
2017-09-15T18:17:27.934Z,82.70
2017-09-15T18:19:55.522Z,82.70
2017-09-15T18:22:23.170Z,82.50
2017-09-15T18:24:50.782Z,81.90
2017-09-15T18:27:18.432Z,81.90
2017-09-15T18:29:46.077Z,81.40
2017-09-15T18:32:13.692Z,82.10
2017-09-15T18:34:41.353Z,82.10
2017-09-15T18:37:09.782Z,82.30
2017-09-15T18:39:37.387Z,82.30
2017-09-15T18:42:05.040Z,82.40
2017-09-15T18:44:32.646Z,82.90
2017-09-15T18:47:00.244Z,83.20
2017-09-15T18:49:27.878Z,83.40
2017-09-15T18:51:55.600Z,84.20
2017-09-15T18:54:23.952Z,84.10
2017-09-15T18:56:51.584Z,84.00
2017-09-15T18:59:19.276Z,84.10
2017-09-15T19:01:46.932Z,84.40
2017-09-15T19:04:14.567Z,84.50
2017-09-15T19:06:42.227Z,84.50
2017-09-15T19:09:09.824Z,84.20
2017-09-15T19:11:37.440Z,85.00
2017-09-15T19:14:05.142Z,85.00
2017-09-15T19:16:32.894Z,85.00
2017-09-15T19:19:01.180Z,84.90
2017-09-15T19:21:28.814Z,85.00
2017-09-15T19:23:56.470Z,85.20
2017-09-15T19:26:27.979Z,85.10
2017-09-15T19:28:55.654Z,85.10
2017-09-15T19:31:23.265Z,85.20
2017-09-15T19:33:50.905Z,85.60
2017-09-15T19:36:18.543Z,85.90
2017-09-15T19:38:46.184Z,85.80
2017-09-15T19:41:13.866Z,86.30
2017-09-15T19:43:41.525Z,86.10
2017-09-15T19:46:09.943Z,86.10
2017-09-15T19:48:37.624Z,86.00
2017-09-15T19:51:06.081Z,86.10
2017-09-15T19:53:33.782Z,86.40
2017-09-15T19:56:02.264Z,86.40
2017-09-15T19:58:29.936Z,86.40
2017-09-15T20:00:57.590Z,87.00
2017-09-15T20:03:25.203Z,86.70
2017-09-15T20:05:52.871Z,87.80
2017-09-15T20:08:21.068Z,87.20
2017-09-15T20:10:48.710Z,87.40
2017-09-15T20:13:16.391Z,88.00
2017-09-15T20:15:44.037Z,88.20
2017-09-15T20:18:11.642Z,88.20
2017-09-15T20:20:39.266Z,88.20
2017-09-15T20:23:06.845Z,88.40
2017-09-15T20:25:34.526Z,88.70
2017-09-15T20:28:02.104Z,88.70
2017-09-15T20:30:29.740Z,88.60
2017-09-15T20:32:57.353Z,88.90
2017-09-15T20:35:25.448Z,89.20
2017-09-15T20:37:53.156Z,89.50
2017-09-15T20:40:21.556Z,89.40
2017-09-15T20:42:49.235Z,89.30
2017-09-15T20:45:16.972Z,89.80
2017-09-15T20:47:45.371Z,89.50
2017-09-15T20:50:13.028Z,89.50
2017-09-15T20:52:40.691Z,89.70
2017-09-15T20:55:08.324Z,90.00
2017-09-15T20:57:36.021Z,90.40
2017-09-15T21:00:03.664Z,90.10
2017-09-15T21:02:31.299Z,90.10
2017-09-15T21:04:58.892Z,90.00
2017-09-15T21:07:26.566Z,90.10
2017-09-15T21:09:54.221Z,90.00
2017-09-15T21:12:21.902Z,90.10
2017-09-15T21:14:49.518Z,90.10
2017-09-15T21:17:18.042Z,90.10
2017-09-15T21:19:45.719Z,90.10
2017-09-15T21:22:13.302Z,90.10
2017-09-15T21:24:40.862Z,90.00
2017-09-15T21:27:08.475Z,90.20
2017-09-15T21:29:36.104Z,90.30
2017-09-15T21:32:03.758Z,90.40
2017-09-15T21:34:31.432Z,90.50
2017-09-15T21:36:59.793Z,90.60
2017-09-15T21:39:27.399Z,90.60
2017-09-15T21:41:54.985Z,90.70
2017-09-15T21:44:22.670Z,90.60
2017-09-15T21:46:50.368Z,90.60
2017-09-15T21:49:18.198Z,90.60
2017-09-15T21:51:45.827Z,90.50
2017-09-15T21:54:13.576Z,90.60
2017-09-15T21:56:41.206Z,90.60
2017-09-15T21:59:09.634Z,90.60
2017-09-15T22:01:37.264Z,90.50
2017-09-15T22:04:10.477Z,90.60
2017-09-15T22:06:38.086Z,90.60
2017-09-15T22:09:05.707Z,90.70
2017-09-15T22:11:33.365Z,90.70
2017-09-15T22:14:01.080Z,90.60
2017-09-15T22:16:28.759Z,90.40
2017-09-15T22:18:56.400Z,90.40
2017-09-15T22:21:24.065Z,90.40
2017-09-15T22:23:51.693Z,90.50
2017-09-15T22:26:20.094Z,90.30
2017-09-15T22:28:47.737Z,90.20
2017-09-15T22:31:16.139Z,90.20
2017-09-15T22:33:43.763Z,90.30
2017-09-15T22:36:11.433Z,90.30
2017-09-15T22:38:39.051Z,90.40
2017-09-15T22:41:06.682Z,90.40
2017-09-15T22:43:34.338Z,90.40
2017-09-15T22:46:01.961Z,90.50
2017-09-15T22:48:29.612Z,90.60
2017-09-15T22:50:57.228Z,90.80
2017-09-15T22:53:24.963Z,90.90
2017-09-15T22:55:52.584Z,90.90
2017-09-15T22:58:20.247Z,91.00
2017-09-15T23:00:47.908Z,91.10
2017-09-15T23:03:15.607Z,90.90
2017-09-15T23:05:43.262Z,91.10
2017-09-15T23:08:10.904Z,90.90
2017-09-15T23:10:38.494Z,90.90
2017-09-15T23:13:06.121Z,91.00
2017-09-15T23:15:33.761Z,91.20
2017-09-15T23:18:01.371Z,91.00
2017-09-15T23:20:29.047Z,91.00
2017-09-15T23:22:56.736Z,91.10
2017-09-15T23:25:24.411Z,91.30
2017-09-15T23:27:52.818Z,91.40
2017-09-15T23:30:20.433Z,91.40
2017-09-15T23:32:48.141Z,91.40
2017-09-15T23:35:15.774Z,91.40
2017-09-15T23:37:44.188Z,91.50
2017-09-15T23:40:12.146Z,91.40
2017-09-15T23:42:39.753Z,91.60
2017-09-15T23:45:07.371Z,91.50
2017-09-15T23:47:35.030Z,91.40
2017-09-15T23:50:02.677Z,91.40
2017-09-15T23:52:30.803Z,91.40
2017-09-15T23:54:58.501Z,91.40
2017-09-15T23:57:26.109Z,91.40
2017-09-15T23:59:53.731Z,91.80
